Time;durP1;ratioP1;P1;durP2;ratioP2;P2;SDS_P1;SDS_P2;PMS_P1;PMS_P2;Temp;Humidity;BMP_temperature;BMP_pressure;BME280_temperature;BME280_humidity;BME280_pressure;Samples;Min_cycle;Max_cycle;Signal;HPM_P1;HPM_P2
2023/07/04 04:54:47;;;;;;;1.08;1.08;;;;;;;;;;4977914;28;20218;-72
2023/07/04 04:57:57;;;;;;;1.50;1.40;;;;;;;;;;4977902;28;20198;-72
2023/07/04 05:01:04;;;;;;;1.70;1.60;;;;;;;;;;4977465;28;20638;-70
2023/07/04 05:03:31;;;;;;;1.23;1.23;;;;;;;;;;4983632;23;20280;-66
2023/07/04 05:06:03;;;;;;;1.48;1.27;;;;;;;;;;4977540;28;20191;-67
2023/07/04 05:08:35;;;;;;;1.55;1.50;;;;;;;;;;4977260;28;20669;-67
2023/07/04 05:11:16;;;;;;;1.20;1.10;;;;;;;;;;4977094;28;20674;-67
2023/07/04 05:13:49;;;;;;;1.10;1.10;;;;;;;;;;4977441;28;20226;-67
2023/07/04 05:16:22;;;;;;;0.98;0.98;;;;;;;;;;4977380;28;20186;-67
2023/07/04 05:18:54;;;;;;;0.90;0.90;;;;;;;;;;4977410;28;20191;-67
2023/07/04 05:21:22;;;;;;;1.10;1.10;;;;;;;;;;4977272;28;20263;-67
2023/07/04 05:23:50;;;;;;;1.23;1.23;;;;;;;;;;4977201;28;20220;-67
2023/07/04 05:26:24;;;;;;;1.15;1.15;;;;;;;;;;4977765;28;20706;-68
2023/07/04 05:29:16;;;;;;;0.90;0.90;;;;;;;;;;4976858;28;20745;-67
2023/07/04 05:32:26;;;;;;;1.50;1.05;;;;;;;;;;4976994;28;20204;-68
2023/07/04 05:34:55;;;;;;;0.75;0.75;;;;;;;;;;4976981;28;20226;-67
2023/07/04 05:38:01;;;;;;;1.00;1.00;;;;;;;;;;4976646;28;20291;-67
2023/07/04 05:41:05;;;;;;;1.38;1.35;;;;;;;;;;4976916;28;20183;-67
2023/07/04 05:44:05;;;;;;;0.98;0.90;;;;;;;;;;4976808;28;20222;-67
2023/07/04 05:46:48;;;;;;;1.00;1.00;;;;;;;;;;4976803;28;20210;-67
2023/07/04 05:49:15;;;;;;;0.85;0.85;;;;;;;;;;4976480;28;20602;-67
2023/07/04 05:51:42;;;;;;;0.85;0.85;;;;;;;;;;4976716;28;20210;-67
2023/07/04 05:54:09;;;;;;;1.10;0.93;;;;;;;;;;4976464;28;20223;-67
2023/07/04 05:56:36;;;;;;;0.70;0.70;;;;;;;;;;4976593;28;20203;-67
2023/07/04 05:59:05;;;;;;;0.80;0.80;;;;;;;;;;4976575;28;20550;-67
2023/07/04 06:01:33;;;;;;;0.68;0.65;;;;;;;;;;4976543;28;20209;-67
2023/07/04 06:04:03;;;;;;;0.60;0.60;;;;;;;;;;4975948;28;20773;-67
2023/07/04 06:06:31;;;;;;;0.75;0.75;;;;;;;;;;4976396;28;20287;-67
2023/07/04 06:08:59;;;;;;;0.73;0.73;;;;;;;;;;4976401;28;20214;-67
2023/07/04 06:11:29;;;;;;;0.80;0.80;;;;;;;;;;4975987;28;20681;-67
2023/07/04 06:13:56;;;;;;;1.83;0.70;;;;;;;;;;4976285;28;20227;-67
2023/07/04 06:16:25;;;;;;;0.60;0.60;;;;;;;;;;4976980;28;20198;-67
2023/07/04 06:18:52;;;;;;;0.90;0.90;;;;;;;;;;4976235;28;20207;-68
2023/07/04 06:21:20;;;;;;;0.70;0.70;;;;;;;;;;4975861;28;20697;-68
2023/07/04 06:23:49;;;;;;;0.70;0.70;;;;;;;;;;4976000;28;20226;-68
2023/07/04 06:26:16;;;;;;;0.60;0.60;;;;;;;;;;4976094;28;20632;-68
2023/07/04 06:28:43;;;;;;;0.60;0.60;;;;;;;;;;4975723;28;20565;-68
2023/07/04 06:31:12;;;;;;;0.70;0.70;;;;;;;;;;4975883;28;20293;-68
2023/07/04 06:33:41;;;;;;;0.70;0.70;;;;;;;;;;4975969;28;20231;-67
2023/07/04 06:36:09;;;;;;;0.73;0.73;;;;;;;;;;4975885;28;20198;-67
2023/07/04 06:38:38;;;;;;;0.70;0.70;;;;;;;;;;4975789;28;20238;-67
2023/07/04 06:41:06;;;;;;;0.85;0.85;;;;;;;;;;4975786;28;20226;-67
2023/07/04 06:43:34;;;;;;;0.70;0.70;;;;;;;;;;4975295;28;20709;-67
2023/07/04 06:46:01;;;;;;;0.88;0.88;;;;;;;;;;4975715;28;20202;-67
2023/07/04 06:48:29;;;;;;;1.02;1.02;;;;;;;;;;4975643;28;20199;-67
2023/07/04 10:52:25;;;;;;;0.90;0.90;;;;;;;;;;4956297;28;20231;-68
2023/07/04 10:54:53;;;;;;;0.80;0.80;;;;;;;;;;4959937;29;20208;-66
2023/07/04 10:57:24;;;;;;;1.00;1.00;;;;;;;;;;4961832;29;20199;-67
2023/07/04 10:59:53;;;;;;;0.75;0.75;;;;;;;;;;4960820;29;20734;-66
2023/07/04 11:02:25;;;;;;;0.60;0.60;;;;;;;;;;4942315;29;20232;-66
2023/07/04 11:04:53;;;;;;;0.80;0.80;;;;;;;;;;4942386;29;20636;-66
2023/07/04 11:07:23;;;;;;;0.82;0.82;;;;;;;;;;4940176;29;20200;-66
2023/07/04 11:09:52;;;;;;;0.68;0.68;;;;;;;;;;4938324;29;20201;-68
2023/07/04 11:12:20;;;;;;;0.85;0.85;;;;;;;;;;4936690;29;20204;-67
2023/07/04 11:14:48;;;;;;;0.90;0.90;;;;;;;;;;4936062;29;20297;-67
2023/07/04 11:17:17;;;;;;;0.93;0.93;;;;;;;;;;4941353;29;20212;-67
2023/07/04 11:19:55;;;;;;;0.70;0.70;;;;;;;;;;4940800;29;20263;-68
2023/07/04 11:22:37;;;;;;;0.60;0.60;;;;;;;;;;4936579;29;20188;-68
2023/07/04 11:25:20;;;;;;;0.80;0.80;;;;;;;;;;4938936;29;20659;-68
2023/07/04 11:28:07;;;;;;;0.60;0.60;;;;;;;;;;4940075;29;20275;-68
2023/07/04 11:30:36;;;;;;;0.80;0.80;;;;;;;;;;4939820;29;20228;-68
2023/07/04 11:33:03;;;;;;;0.50;0.50;;;;;;;;;;4940134;29;20208;-68
2023/07/04 11:35:34;;;;;;;0.68;0.68;;;;;;;;;;4940972;29;20224;-67
2023/07/04 11:38:05;;;;;;;0.60;0.60;;;;;;;;;;4941516;29;20752;-68
2023/07/04 11:40:33;;;;;;;0.60;0.60;;;;;;;;;;4941355;29;20228;-68
2023/07/04 11:43:05;;;;;;;0.52;0.50;;;;;;;;;;4941425;29;20271;-68
2023/07/04 11:45:33;;;;;;;0.60;0.60;;;;;;;;;;4940221;29;20185;-68
2023/07/04 11:48:03;;;;;;;0.70;0.70;;;;;;;;;;4939533;29;20240;-68
2023/07/04 11:50:33;;;;;;;0.43;0.43;;;;;;;;;;4940244;29;20698;-68
2023/07/04 11:53:02;;;;;;;0.43;0.40;;;;;;;;;;4940923;29;20236;-68
2023/07/04 11:55:32;;;;;;;0.40;0.40;;;;;;;;;;4940498;29;20208;-68
2023/07/04 11:58:17;;;;;;;0.45;0.45;;;;;;;;;;4940930;29;20212;-68
2023/07/04 12:01:04;;;;;;;0.30;0.30;;;;;;;;;;4939566;29;20220;-68
2023/07/04 12:03:52;;;;;;;1.45;0.50;;;;;;;;;;4939429;29;20690;-68
2023/07/04 12:06:38;;;;;;;0.25;0.25;;;;;;;;;;4934594;29;20204;-67
2023/07/04 12:09:06;;;;;;;0.45;0.40;;;;;;;;;;4940274;29;20291;-67
2023/07/04 12:11:42;;;;;;;0.30;0.30;;;;;;;;;;4940155;29;20224;-67
2023/07/04 12:14:10;;;;;;;0.25;0.25;;;;;;;;;;4940605;29;20188;-67
2023/07/04 12:16:37;;;;;;;0.30;0.30;;;;;;;;;;4940148;29;20224;-67
2023/07/04 12:19:05;;;;;;;0.40;0.40;;;;;;;;;;4939909;29;20690;-67
2023/07/04 12:21:34;;;;;;;0.20;0.20;;;;;;;;;;4939553;29;20600;-67
2023/07/04 12:24:03;;;;;;;0.30;0.30;;;;;;;;;;4940294;29;20275;-67
2023/07/04 12:26:32;;;;;;;0.30;0.30;;;;;;;;;;4940643;29;20279;-67
2023/07/04 12:29:02;;;;;;;0.28;0.28;;;;;;;;;;4940262;29;20255;-67
2023/07/04 12:31:29;;;;;;;0.20;0.20;;;;;;;;;;4940401;29;20284;-67
2023/07/04 12:33:58;;;;;;;0.22;0.20;;;;;;;;;;4939898;29;20239;-67
2023/07/04 12:36:33;;;;;;;1.05;0.30;;;;;;;;;;4939210;29;20227;-67
2023/07/04 12:39:03;;;;;;;0.43;0.30;;;;;;;;;;4940531;29;20192;-67
2023/07/04 12:41:32;;;;;;;0.25;0.25;;;;;;;;;;4940249;29;20314;-67
2023/07/04 12:44:02;;;;;;;0.20;0.20;;;;;;;;;;4938676;29;20604;-67
2023/07/04 12:46:31;;;;;;;0.52;0.40;;;;;;;;;;4939739;29;20209;-67
2023/07/04 12:48:59;;;;;;;0.40;0.40;;;;;;;;;;4940075;29;20215;-66
2023/07/04 12:51:28;;;;;;;0.22;0.20;;;;;;;;;;4942321;29;20231;-67
2023/07/04 12:53:56;;;;;;;0.40;0.40;;;;;;;;;;4943160;29;20212;-67
2023/07/04 12:56:24;;;;;;;0.32;0.32;;;;;;;;;;4943512;29;20259;-67
2023/07/04 12:58:51;;;;;;;0.20;0.20;;;;;;;;;;4942430;29;20227;-67
2023/07/04 13:01:25;;;;;;;0.30;0.30;;;;;;;;;;4943513;29;20284;-67
2023/07/04 13:03:56;;;;;;;0.20;0.20;;;;;;;;;;4944049;29;20200;-67
2023/07/04 13:06:24;;;;;;;0.30;0.30;;;;;;;;;;4943063;29;20557;-67
2023/07/04 13:08:53;;;;;;;0.30;0.30;;;;;;;;;;4944292;29;20234;-67
2023/07/04 13:11:21;;;;;;;0.20;0.20;;;;;;;;;;4943812;29;20266;-67
2023/07/04 13:13:48;;;;;;;0.32;0.32;;;;;;;;;;4939092;29;20211;-67
2023/07/04 13:16:17;;;;;;;0.22;0.22;;;;;;;;;;4939095;29;20212;-67
2023/07/04 13:18:47;;;;;;;0.22;0.22;;;;;;;;;;4939388;29;20208;-67
2023/07/04 13:21:25;;;;;;;1.85;0.40;;;;;;;;;;4938781;29;20220;-67
2023/07/04 13:23:52;;;;;;;0.30;0.30;;;;;;;;;;4938504;29;20196;-66
2023/07/04 13:26:19;;;;;;;1.30;0.30;;;;;;;;;;4938358;29;20683;-67
2023/07/04 13:28:48;;;;;;;0.22;0.22;;;;;;;;;;4938704;29;20212;-67
2023/07/04 13:31:22;;;;;;;0.20;0.20;;;;;;;;;;4938646;29;20775;-68
2023/07/04 13:33:51;;;;;;;0.38;0.30;;;;;;;;;;4938714;29;20204;-68
2023/07/04 13:36:26;;;;;;;0.70;0.30;;;;;;;;;;4938479;29;20262;-68
2023/07/04 13:38:54;;;;;;;0.55;0.20;;;;;;;;;;4938480;29;20239;-67
2023/07/04 13:41:22;;;;;;;0.57;0.35;;;;;;;;;;4938017;29;20227;-67
2023/07/04 13:43:52;;;;;;;0.73;0.73;;;;;;;;;;4938448;29;20536;-67
2023/07/04 13:46:19;;;;;;;0.38;0.38;;;;;;;;;;4938694;29;20285;-67
2023/07/04 13:48:47;;;;;;;0.50;0.50;;;;;;;;;;4938317;29;20212;-67
2023/07/04 13:51:15;;;;;;;0.40;0.40;;;;;;;;;;4938588;29;20224;-67
2023/07/04 13:53:42;;;;;;;0.40;0.40;;;;;;;;;;4938194;29;20301;-67
2023/07/04 13:56:39;;;;;;;0.50;0.50;;;;;;;;;;4938130;29;20224;-67
2023/07/04 13:59:06;;;;;;;0.40;0.40;;;;;;;;;;4938363;29;20196;-67
2023/07/04 14:01:33;;;;;;;0.45;0.45;;;;;;;;;;4937868;29;20271;-67
2023/07/04 14:04:00;;;;;;;0.50;0.50;;;;;;;;;;4937988;29;20377;-67
2023/07/04 14:06:53;;;;;;;0.50;0.50;;;;;;;;;;4937939;29;20203;-67
2023/07/04 14:09:49;;;;;;;0.40;0.40;;;;;;;;;;4937778;29;20189;-68
2023/07/04 14:13:02;;;;;;;0.43;0.43;;;;;;;;;;4938636;29;20275;-68
2023/07/04 14:15:31;;;;;;;0.50;0.50;;;;;;;;;;4937603;29;20623;-68
2023/07/04 14:18:04;;;;;;;0.40;0.40;;;;;;;;;;4937776;29;20220;-68
2023/07/04 14:20:31;;;;;;;0.43;0.35;;;;;;;;;;4937757;29;20231;-68
2023/07/04 14:22:59;;;;;;;0.60;0.60;;;;;;;;;;4937665;29;20204;-68
2023/07/04 14:26:04;;;;;;;0.38;0.38;;;;;;;;;;4937442;29;20671;-68
2023/07/04 14:28:43;;;;;;;0.57;0.57;;;;;;;;;;4937589;29;20200;-68
2023/07/04 14:31:56;;;;;;;0.40;0.40;;;;;;;;;;4937434;29;20247;-68
2023/07/04 14:34:39;;;;;;;0.50;0.50;;;;;;;;;;4937475;29;20211;-68
2023/07/04 14:37:14;;;;;;;0.50;0.50;;;;;;;;;;4937462;29;20188;-68
2023/07/04 14:39:42;;;;;;;0.40;0.40;;;;;;;;;;4937342;29;20211;-68
2023/07/04 14:42:14;;;;;;;0.40;0.40;;;;;;;;;;4937267;29;20227;-68
2023/07/04 14:44:44;;;;;;;0.60;0.55;;;;;;;;;;4937348;29;20207;-68
2023/07/04 14:47:11;;;;;;;0.65;0.65;;;;;;;;;;4937637;29;20235;-68
2023/07/04 14:50:25;;;;;;;0.60;0.60;;;;;;;;;;4936943;29;20208;-68
2023/07/04 14:53:38;;;;;;;0.40;0.40;;;;;;;;;;4954633;28;20211;-68
2023/07/04 14:56:35;;;;;;;0.30;0.30;;;;;;;;;;4956201;29;20214;-68
2023/07/04 14:59:05;;;;;;;0.50;0.50;;;;;;;;;;4956191;29;20217;-68
2023/07/04 15:01:37;;;;;;;0.40;0.40;;;;;;;;;;4956433;29;20234;-66
2023/07/04 15:04:12;;;;;;;0.50;0.50;;;;;;;;;;4956282;29;20198;-69
2023/07/04 15:07:00;;;;;;;0.43;0.43;;;;;;;;;;4956566;29;20207;-68
2023/07/04 15:09:35;;;;;;;0.30;0.30;;;;;;;;;;4956796;29;20191;-67
2023/07/04 15:12:09;;;;;;;0.40;0.40;;;;;;;;;;4955983;29;20215;-67
2023/07/04 15:14:41;;;;;;;0.45;0.45;;;;;;;;;;4955802;29;20196;-67
2023/07/04 15:17:11;;;;;;;0.40;0.40;;;;;;;;;;4956050;29;20195;-67
2023/07/04 15:19:42;;;;;;;0.40;0.40;;;;;;;;;;4955633;29;20643;-67
2023/07/04 15:22:12;;;;;;;0.50;0.50;;;;;;;;;;4954940;28;20227;-67
2023/07/04 15:24:43;;;;;;;0.50;0.50;;;;;;;;;;4955787;29;20192;-67
2023/07/04 15:27:14;;;;;;;0.32;0.32;;;;;;;;;;4955814;29;20187;-67
2023/07/04 15:29:45;;;;;;;0.70;0.70;;;;;;;;;;4955836;29;20209;-67
2023/07/04 15:32:15;;;;;;;0.40;0.40;;;;;;;;;;4955965;29;20231;-67
2023/07/04 15:34:45;;;;;;;0.50;0.50;;;;;;;;;;4956977;29;20202;-67
2023/07/04 15:37:16;;;;;;;0.40;0.40;;;;;;;;;;4955884;29;20196;-67
2023/07/04 15:39:45;;;;;;;0.65;0.65;;;;;;;;;;4955335;29;20666;-67
2023/07/04 15:42:17;;;;;;;0.50;0.50;;;;;;;;;;4955545;29;20360;-67
2023/07/04 15:44:45;;;;;;;0.47;0.47;;;;;;;;;;4955554;29;20184;-67
2023/07/04 15:47:14;;;;;;;0.50;0.50;;;;;;;;;;4955427;29;20207;-67
2023/07/04 15:49:43;;;;;;;1.33;0.45;;;;;;;;;;4955449;29;20214;-67
2023/07/04 15:52:11;;;;;;;0.40;0.40;;;;;;;;;;4954864;29;20647;-67
2023/07/04 15:54:41;;;;;;;0.85;0.60;;;;;;;;;;4955330;29;20208;-67
2023/07/04 15:57:11;;;;;;;0.40;0.40;;;;;;;;;;4955229;29;20258;-67
2023/07/04 15:59:42;;;;;;;0.50;0.50;;;;;;;;;;4955607;29;20218;-67
2023/07/04 16:02:10;;;;;;;0.50;0.50;;;;;;;;;;4955283;29;20275;-67
2023/07/04 16:04:39;;;;;;;0.40;0.40;;;;;;;;;;4955210;29;20314;-67
2023/07/04 16:07:11;;;;;;;0.45;0.45;;;;;;;;;;4955256;29;20203;-67
2023/07/04 16:09:41;;;;;;;0.40;0.40;;;;;;;;;;4955390;29;20214;-67
2023/07/04 16:12:09;;;;;;;0.60;0.60;;;;;;;;;;4955152;29;20243;-67
2023/07/04 16:14:38;;;;;;;0.70;0.70;;;;;;;;;;4955393;29;20227;-67
2023/07/04 16:17:08;;;;;;;0.40;0.40;;;;;;;;;;4955270;29;20235;-67
2023/07/04 16:19:38;;;;;;;0.57;0.40;;;;;;;;;;4955165;29;20211;-67
2023/07/04 16:22:06;;;;;;;0.60;0.60;;;;;;;;;;4955474;29;20587;-67
2023/07/04 16:24:34;;;;;;;0.47;0.47;;;;;;;;;;4954903;29;20695;-67
2023/07/04 16:27:02;;;;;;;0.40;0.40;;;;;;;;;;4955204;29;20199;-66
2023/07/04 16:29:31;;;;;;;0.43;0.43;;;;;;;;;;4954797;29;20211;-66
2023/07/04 16:31:59;;;;;;;0.32;0.32;;;;;;;;;;4955117;29;20227;-66
2023/07/04 16:34:28;;;;;;;0.75;0.40;;;;;;;;;;4958804;28;20202;-66
2023/07/04 16:36:56;;;;;;;0.40;0.40;;;;;;;;;;4959450;29;20199;-66
2023/07/04 16:39:24;;;;;;;0.50;0.50;;;;;;;;;;4958382;29;20686;-66
2023/07/04 16:41:53;;;;;;;0.50;0.50;;;;;;;;;;4958656;29;20235;-67
2023/07/04 16:44:21;;;;;;;0.50;0.50;;;;;;;;;;4958543;29;20706;-67
2023/07/04 16:46:49;;;;;;;0.47;0.47;;;;;;;;;;4958484;29;20579;-67
2023/07/04 16:49:17;;;;;;;0.40;0.40;;;;;;;;;;4958493;29;20207;-67
2023/07/04 16:51:46;;;;;;;0.60;0.60;;;;;;;;;;4958135;29;20231;-67
2023/07/04 16:54:14;;;;;;;0.70;0.70;;;;;;;;;;4958432;29;20199;-67
2023/07/04 16:56:42;;;;;;;0.73;0.73;;;;;;;;;;4958445;29;20204;-67
2023/07/04 16:59:10;;;;;;;0.70;0.70;;;;;;;;;;4958335;29;20768;-67
2023/07/04 17:01:38;;;;;;;0.60;0.60;;;;;;;;;;4958259;29;20230;-67
2023/07/04 17:04:06;;;;;;;0.60;0.60;;;;;;;;;;4958247;29;20231;-67
2023/07/04 17:06:34;;;;;;;0.90;0.90;;;;;;;;;;4958200;29;20204;-67
2023/07/04 17:09:04;;;;;;;0.50;0.50;;;;;;;;;;4958353;29;20593;-69
2023/07/04 17:11:31;;;;;;;0.60;0.60;;;;;;;;;;4958043;29;20305;-69
2023/07/04 17:14:02;;;;;;;0.70;0.70;;;;;;;;;;4958038;29;20259;-69
2023/07/04 17:16:30;;;;;;;0.70;0.70;;;;;;;;;;4957822;29;20632;-69
2023/07/04 17:18:58;;;;;;;0.80;0.80;;;;;;;;;;4958075;29;20203;-69
2023/07/04 17:21:26;;;;;;;0.80;0.80;;;;;;;;;;4957948;29;20223;-69
2023/07/04 17:23:55;;;;;;;0.80;0.80;;;;;;;;;;4957597;29;20206;-69
2023/07/04 17:26:25;;;;;;;0.90;0.90;;;;;;;;;;4957774;29;20671;-69
2023/07/04 17:28:53;;;;;;;0.57;0.57;;;;;;;;;;4957922;29;20231;-68
2023/07/04 17:31:21;;;;;;;0.75;0.75;;;;;;;;;;4957447;29;20228;-68
2023/07/04 17:33:49;;;;;;;1.08;0.88;;;;;;;;;;4957804;29;20199;-69
2023/07/04 17:36:17;;;;;;;0.80;0.80;;;;;;;;;;4957780;29;20204;-69
2023/07/04 17:38:45;;;;;;;0.80;0.80;;;;;;;;;;4957307;29;20683;-69
2023/07/04 17:41:13;;;;;;;0.85;0.85;;;;;;;;;;4957299;29;20624;-69
2023/07/04 17:43:42;;;;;;;0.98;0.85;;;;;;;;;;4957353;28;20207;-68
2023/07/04 17:46:10;;;;;;;1.00;1.00;;;;;;;;;;4956926;29;20234;-68
2023/07/04 17:48:38;;;;;;;0.80;0.80;;;;;;;;;;4957504;29;20199;-68
2023/07/04 17:51:06;;;;;;;0.90;0.90;;;;;;;;;;4957181;29;20235;-69
2023/07/04 17:53:34;;;;;;;0.70;0.70;;;;;;;;;;4957413;29;20258;-69
2023/07/04 17:56:04;;;;;;;0.85;0.85;;;21.90;99.90;;;;;;4957325;29;20203;-68
2023/07/04 17:58:31;;;;;;;0.90;0.90;;;;;;;;;;4957683;29;20381;-68
2023/07/04 18:01:01;;;;;;;1.02;1.00;;;;;;;;;;4957198;29;20282;-69
2023/07/04 18:03:29;;;;;;;0.88;0.88;;;;;;;;;;4957274;29;20195;-68
2023/07/04 18:05:57;;;;;;;1.05;0.98;;;;;;;;;;4957208;29;20251;-68
2023/07/04 18:08:24;;;;;;;0.80;0.80;;;;;;;;;;4957085;29;20207;-68
2023/07/04 18:10:53;;;;;;;0.73;0.73;;;;;;;;;;4956994;29;20223;-68
2023/07/04 18:13:20;;;;;;;0.82;0.82;;;;;;;;;;4957052;29;20200;-69
2023/07/04 18:15:51;;;;;;;0.70;0.70;;;;;;;;;;4956985;29;20199;-69
2023/07/04 18:18:20;;;;;;;0.82;0.75;;;;;;;;;;4957137;29;20227;-69
2023/07/04 18:20:48;;;;;;;0.80;0.80;;;;;;;;;;4957128;29;20227;-69
2023/07/04 18:23:16;;;;;;;0.73;0.73;;;;;;;;;;4956966;29;20191;-68
2023/07/04 18:25:49;;;;;;;0.60;0.60;;;;;;;;;;4956461;29;20576;-68
2023/07/04 18:28:19;;;;;;;0.70;0.70;;;;;;;;;;4956506;29;20556;-69
2023/07/04 18:30:47;;;;;;;0.68;0.68;;;;;;;;;;4957269;29;20223;-69
2023/07/04 18:33:15;;;;;;;0.70;0.63;;;;;;;;;;4957213;29;20266;-69
2023/07/04 18:35:45;;;;;;;0.70;0.70;;;;;;;;;;4956329;29;20579;-67
2023/07/04 18:38:13;;;;;;;0.80;0.80;;;;;;;;;;4956315;29;20208;-67
2023/07/04 18:40:47;;;;;;;0.65;0.65;;;;;;;;;;4956540;29;20234;-67
2023/07/04 18:43:15;;;;;;;0.90;0.90;;;;;;;;;;4956650;29;20188;-67
2023/07/04 18:45:43;;;;;;;0.63;0.63;;;;;;;;;;4956668;29;20552;-67
2023/07/04 18:48:11;;;;;;;0.70;0.70;;;;;;;;;;4956506;29;20211;-68
2023/07/04 18:50:40;;;;;;;0.73;0.73;;;;;;;;;;4956237;29;20602;-68
2023/07/04 18:53:09;;;;;;;1.27;0.82;;;;;;;;;;4957007;29;20264;-67
2023/07/04 18:55:39;;;;;;;0.80;0.80;;;;;;;;;;4965527;28;20199;-67
2023/07/04 18:58:07;;;;;;;0.70;0.70;;;;;;;;;;4968234;29;20207;-67
2023/07/04 19:00:35;;;;;;;0.60;0.60;;;;;;;;;;4971720;29;20227;-66
2023/07/04 19:03:03;;;;;;;0.60;0.60;;;;;;;;;;4959593;29;20619;-66
2023/07/04 19:05:33;;;;;;;0.60;0.60;;;;;;;;;;4956093;29;20220;-66
2023/07/04 19:08:02;;;;;;;0.60;0.60;;;;;;;;;;4956185;29;20246;-66
2023/07/04 19:10:31;;;;;;;0.75;0.75;;;;;;;;;;4956003;29;20227;-66
2023/07/04 19:13:00;;;;;;;0.82;0.82;;;;;;;;;;4956118;29;20199;-66
2023/07/04 19:15:29;;;;;;;0.50;0.50;;;;;;;;;;4955760;29;20675;-66
2023/07/04 19:17:59;;;;;;;0.75;0.75;;;;;;;;;;4955990;29;20206;-66
2023/07/04 19:20:29;;;;;;;2.08;0.60;;;;;;;;;;4956600;29;20227;-66
2023/07/04 19:23:00;;;;;;;0.60;0.60;;;;;;;;;;4955825;29;20271;-66
2023/07/04 19:25:30;;;;;;;0.70;0.70;;;;;;;;;;4955739;29;20211;-67
2023/07/04 19:28:01;;;;;;;0.80;0.80;;;;;;;;;;4955710;29;20196;-67
2023/07/04 19:30:35;;;;;;;0.60;0.60;;;;;;;;;;4955678;29;20228;-68
2023/07/04 19:33:05;;;;;;;0.57;0.57;;;;;;;;;;4955783;29;20198;-68
2023/07/04 19:35:36;;;;;;;0.70;0.70;;;;;;;;;;4955685;29;20210;-68
2023/07/04 19:38:09;;;;;;;0.60;0.60;;;;;;;;;;4955521;29;20648;-68
2023/07/04 19:40:40;;;;;;;0.70;0.70;;;;;;;;;;4955682;29;20224;-68
2023/07/04 19:43:12;;;;;;;0.68;0.68;;;;;;;;;;4955646;29;20195;-68
2023/07/04 19:45:44;;;;;;;0.70;0.70;;;;;;;;;;4955301;29;20553;-67
2023/07/04 19:48:16;;;;;;;1.05;0.68;;;;;;;;;;4955742;29;20191;-67
2023/07/04 19:50:50;;;;;;;0.80;0.80;;;;;;;;;;4955679;29;20239;-67
2023/07/04 19:53:27;;;;;;;0.80;0.80;;;;;;;;;;4955610;29;20198;-67
2023/07/04 19:56:10;;;;;;;0.50;0.50;;;;;;;;;;4955473;29;20191;-67
2023/07/04 19:58:50;;;;;;;1.85;0.70;;;;;;;;;;4955453;29;20195;-67
2023/07/04 20:01:33;;;;;;;0.70;0.70;;;;;;;;;;4955064;29;20702;-67
2023/07/04 20:04:17;;;;;;;1.10;1.00;;;;;;;;;;4955007;29;20192;-67
2023/07/04 20:07:00;;;;;;;0.90;0.90;;;;;;;;;;4955166;29;20632;-67
2023/07/04 20:10:08;;;;;;;0.60;0.60;;;;;;;;;;4959225;29;20191;-67
2023/07/04 20:13:17;;;;;;;0.80;0.80;;;;;;;;;;4959331;29;20207;-67
2023/07/04 20:16:27;;;;;;;0.70;0.70;;;;;;;;;;4959240;29;20301;-66
2023/07/04 20:19:37;;;;;;;0.70;0.70;;;;;;;;;;4959259;29;20250;-66
2023/07/04 20:22:47;;;;;;;0.70;0.70;;;;;;;;;;4959123;29;20226;-66
2023/07/04 20:25:57;;;;;;;0.65;0.65;;;;;;;;;;4958995;29;20208;-67
2023/07/04 20:29:08;;;;;;;0.70;0.70;;;;;;;;;;4958990;29;20203;-67
2023/07/04 20:32:19;;;;;;;0.55;0.55;;;;;;;;;;4958854;29;20223;-67
2023/07/04 20:35:30;;;;;;;0.70;0.70;;;;;;;;;;4958617;29;20199;-67
2023/07/04 20:38:42;;;;;;;0.60;0.60;;;;;;;;;;4958845;29;20188;-66
2023/07/04 20:41:54;;;;;;;0.60;0.60;;;;;;;;;;4958654;29;20228;-66
2023/07/04 20:45:06;;;;;;;0.70;0.70;;;;;;;;;;4958651;29;20204;-66
2023/07/04 20:48:21;;;;;;;0.60;0.60;;;;;;;;;;4958611;29;20211;-67
2023/07/04 20:51:35;;;;;;;0.77;0.77;;;;;;;;;;4958316;29;20278;-67
2023/07/04 20:54:23;;;;;;;0.70;0.70;;;;;;;;;;4958366;29;20603;-67
2023/07/04 20:56:54;;;;;;;0.85;0.70;;;;;;;;;;4958476;29;20223;-67
2023/07/04 20:59:23;;;;;;;0.80;0.80;;;;;;;;;;4958156;29;20582;-67
2023/07/04 21:01:51;;;;;;;0.88;0.88;;;;;;;;;;4958425;29;20227;-67
2023/07/04 21:04:22;;;;;;;0.73;0.73;;;;;;;;;;4958315;29;20229;-67
2023/07/04 21:06:53;;;;;;;0.68;0.68;;;;;;;;;;4958458;29;20192;-67
2023/07/04 21:09:25;;;;;;;0.80;0.80;;;;;;;;;;4958397;29;20199;-67
2023/07/04 21:12:36;;;;;;;0.82;0.82;;;;;;;;;;4958191;29;20228;-67
2023/07/04 21:15:47;;;;;;;0.70;0.70;;;;;;;;;;4957840;29;20668;-67
2023/07/04 21:18:50;;;;;;;0.80;0.80;;;;;;;;;;4958015;29;20222;-67
2023/07/04 21:21:23;;;;;;;0.63;0.63;;;;;;;;;;4957599;29;20235;-67
2023/07/04 21:23:53;;;;;;;0.65;0.65;;;;;;;;;;4958017;29;20188;-67
2023/07/04 21:26:24;;;;;;;0.68;0.68;;;;;;;;;;4958001;29;20184;-67
2023/07/04 21:28:54;;;;;;;0.68;0.68;;;;;;;;;;4957613;29;20628;-67
2023/07/04 21:31:29;;;;;;;0.80;0.80;;;;;;;;;;4957708;29;20228;-67
2023/07/04 21:34:03;;;;;;;0.82;0.82;;;;;;;;;;4958044;29;20192;-67
2023/07/04 21:36:41;;;;;;;1.02;0.90;;;;;;;;;;4957880;29;20184;-67
2023/07/04 21:39:37;;;;;;;0.80;0.80;;;;;;;;;;4957468;29;20540;-67
2023/07/04 21:42:28;;;;;;;0.70;0.70;;;;;;;;;;4957624;29;20275;-66
